sensor_id;sensor_type;location;lat;lon;timestamp;temperature;humidity
19258;DHT22;9763;48.780;9.212;2023-02-12T00:01:20;9.20;59.50
19258;DHT22;9763;48.780;9.212;2023-02-12T00:04:46;9.20;59.60
19258;DHT22;9763;48.780;9.212;2023-02-12T00:08:11;9.20;59.60
19258;DHT22;9763;48.780;9.212;2023-02-12T00:11:35;9.10;59.60
19258;DHT22;9763;48.780;9.212;2023-02-12T00:14:58;9.10;59.70
19258;DHT22;9763;48.780;9.212;2023-02-12T00:18:22;9.10;59.70
19258;DHT22;9763;48.780;9.212;2023-02-12T00:21:45;9.10;59.80
19258;DHT22;9763;48.780;9.212;2023-02-12T00:25:10;9.00;59.70
19258;DHT22;9763;48.780;9.212;2023-02-12T00:28:35;9.00;59.80
19258;DHT22;9763;48.780;9.212;2023-02-12T00:31:59;9.00;59.80
19258;DHT22;9763;48.780;9.212;2023-02-12T00:35:22;9.10;59.90
19258;DHT22;9763;48.780;9.212;2023-02-12T00:38:47;9.00;60.50
19258;DHT22;9763;48.780;9.212;2023-02-12T00:42:14;9.00;59.80
19258;DHT22;9763;48.780;9.212;2023-02-12T00:45:38;9.00;59.90
19258;DHT22;9763;48.780;9.212;2023-02-12T00:49:01;9.00;59.80
19258;DHT22;9763;48.780;9.212;2023-02-12T00:52:25;8.90;59.90
19258;DHT22;9763;48.780;9.212;2023-02-12T00:55:49;8.90;60.10
19258;DHT22;9763;48.780;9.212;2023-02-12T00:59:14;8.90;60.00
19258;DHT22;9763;48.780;9.212;2023-02-12T01:02:37;8.80;60.10
19258;DHT22;9763;48.780;9.212;2023-02-12T01:06:02;8.80;60.20
19258;DHT22;9763;48.780;9.212;2023-02-12T01:09:27;8.80;60.30
19258;DHT22;9763;48.780;9.212;2023-02-12T01:12:51;8.80;60.20
19258;DHT22;9763;48.780;9.212;2023-02-12T01:16:19;8.80;60.40
19258;DHT22;9763;48.780;9.212;2023-02-12T01:19:44;8.80;60.50
19258;DHT22;9763;48.780;9.212;2023-02-12T01:23:07;8.80;60.30
19258;DHT22;9763;48.780;9.212;2023-02-12T01:26:31;8.80;60.50
19258;DHT22;9763;48.780;9.212;2023-02-12T01:29:55;8.80;60.50
19258;DHT22;9763;48.780;9.212;2023-02-12T01:33:20;8.80;60.30
19258;DHT22;9763;48.780;9.212;2023-02-12T01:36:43;8.80;60.30
19258;DHT22;9763;48.780;9.212;2023-02-12T01:40:08;8.80;60.40
19258;DHT22;9763;48.780;9.212;2023-02-12T01:43:36;8.80;60.60
19258;DHT22;9763;48.780;9.212;2023-02-12T01:47:05;8.80;60.60
19258;DHT22;9763;48.780;9.212;2023-02-12T01:50:29;8.80;60.50
19258;DHT22;9763;48.780;9.212;2023-02-12T01:53:54;8.80;60.60
19258;DHT22;9763;48.780;9.212;2023-02-12T01:57:21;8.90;60.70
19258;DHT22;9763;48.780;9.212;2023-02-12T02:00:46;8.90;60.60
19258;DHT22;9763;48.780;9.212;2023-02-12T02:04:14;8.80;60.40
19258;DHT22;9763;48.780;9.212;2023-02-12T02:07:44;8.80;60.50
19258;DHT22;9763;48.780;9.212;2023-02-12T02:11:08;8.80;60.60
19258;DHT22;9763;48.780;9.212;2023-02-12T02:14:48;8.70;60.50
19258;DHT22;9763;48.780;9.212;2023-02-12T02:18:20;8.80;60.90
19258;DHT22;9763;48.780;9.212;2023-02-12T02:22:16;8.70;60.80
19258;DHT22;9763;48.780;9.212;2023-02-12T02:30:30;8.70;61.00
19258;DHT22;9763;48.780;9.212;2023-02-12T02:34:00;8.70;61.10
19258;DHT22;9763;48.780;9.212;2023-02-12T02:37:31;8.70;60.80
19258;DHT22;9763;48.780;9.212;2023-02-12T02:41:05;8.80;60.90
19258;DHT22;9763;48.780;9.212;2023-02-12T02:44:36;8.80;60.80
19258;DHT22;9763;48.780;9.212;2023-02-12T02:48:09;8.80;60.80
19258;DHT22;9763;48.780;9.212;2023-02-12T02:51:39;8.80;60.80
19258;DHT22;9763;48.780;9.212;2023-02-12T02:55:07;8.70;60.80
19258;DHT22;9763;48.780;9.212;2023-02-12T02:58:39;8.70;60.90
19258;DHT22;9763;48.780;9.212;2023-02-12T03:02:08;8.70;60.90
19258;DHT22;9763;48.780;9.212;2023-02-12T03:05:40;8.90;61.10
19258;DHT22;9763;48.780;9.212;2023-02-12T03:09:14;8.80;61.00
19258;DHT22;9763;48.780;9.212;2023-02-12T03:12:45;8.80;61.00
19258;DHT22;9763;48.780;9.212;2023-02-12T03:16:16;8.80;61.00
19258;DHT22;9763;48.780;9.212;2023-02-12T03:19:45;8.80;61.00
19258;DHT22;9763;48.780;9.212;2023-02-12T03:23:17;8.80;61.10
19258;DHT22;9763;48.780;9.212;2023-02-12T03:26:47;8.80;61.00
19258;DHT22;9763;48.780;9.212;2023-02-12T03:30:14;8.80;61.00
19258;DHT22;9763;48.780;9.212;2023-02-12T03:33:46;8.80;61.00
19258;DHT22;9763;48.780;9.212;2023-02-12T03:37:27;8.80;61.20
19258;DHT22;9763;48.780;9.212;2023-02-12T03:41:02;8.80;61.10
19258;DHT22;9763;48.780;9.212;2023-02-12T03:44:42;8.80;61.10
19258;DHT22;9763;48.780;9.212;2023-02-12T03:48:17;8.70;61.00
19258;DHT22;9763;48.780;9.212;2023-02-12T03:51:45;8.80;61.20
19258;DHT22;9763;48.780;9.212;2023-02-12T03:55:09;8.70;61.00
19258;DHT22;9763;48.780;9.212;2023-02-12T03:58:36;8.70;61.30
19258;DHT22;9763;48.780;9.212;2023-02-12T04:02:02;8.70;61.40
19258;DHT22;9763;48.780;9.212;2023-02-12T04:05:27;8.70;61.30
19258;DHT22;9763;48.780;9.212;2023-02-12T04:08:51;8.70;61.40
19258;DHT22;9763;48.780;9.212;2023-02-12T04:12:30;8.60;61.30
19258;DHT22;9763;48.780;9.212;2023-02-12T04:16:15;10.20;61.90
19258;DHT22;9763;48.780;9.212;2023-02-12T04:19:53;8.70;61.60
19258;DHT22;9763;48.780;9.212;2023-02-12T04:23:41;8.60;61.40
19258;DHT22;9763;48.780;9.212;2023-02-12T04:27:15;8.60;61.50
19258;DHT22;9763;48.780;9.212;2023-02-12T04:30:50;8.60;61.40
19258;DHT22;9763;48.780;9.212;2023-02-12T04:34:25;8.60;61.40
19258;DHT22;9763;48.780;9.212;2023-02-12T04:37:57;8.80;61.70
19258;DHT22;9763;48.780;9.212;2023-02-12T04:41:30;8.50;61.30
19258;DHT22;9763;48.780;9.212;2023-02-12T04:44:54;8.60;61.50
19258;DHT22;9763;48.780;9.212;2023-02-12T04:48:17;8.50;61.50
19258;DHT22;9763;48.780;9.212;2023-02-12T04:51:43;8.50;61.50
19258;DHT22;9763;48.780;9.212;2023-02-12T04:55:07;8.50;61.60
19258;DHT22;9763;48.780;9.212;2023-02-12T04:58:31;8.50;61.60
19258;DHT22;9763;48.780;9.212;2023-02-12T05:01:55;8.50;61.50
19258;DHT22;9763;48.780;9.212;2023-02-12T05:05:19;8.50;61.50
19258;DHT22;9763;48.780;9.212;2023-02-12T05:08:44;8.50;61.70
19258;DHT22;9763;48.780;9.212;2023-02-12T05:12:08;8.50;61.60
19258;DHT22;9763;48.780;9.212;2023-02-12T05:15:32;8.50;61.60
19258;DHT22;9763;48.780;9.212;2023-02-12T05:18:59;8.50;61.60
19258;DHT22;9763;48.780;9.212;2023-02-12T05:22:23;8.50;61.50
19258;DHT22;9763;48.780;9.212;2023-02-12T05:25:48;8.50;61.50
19258;DHT22;9763;48.780;9.212;2023-02-12T05:29:11;8.50;61.60
19258;DHT22;9763;48.780;9.212;2023-02-12T05:32:35;8.50;61.50
19258;DHT22;9763;48.780;9.212;2023-02-12T05:36:02;8.50;61.60
19258;DHT22;9763;48.780;9.212;2023-02-12T05:39:27;8.40;62.50
19258;DHT22;9763;48.780;9.212;2023-02-12T05:42:52;8.40;61.70
19258;DHT22;9763;48.780;9.212;2023-02-12T05:46:16;8.40;61.70
19258;DHT22;9763;48.780;9.212;2023-02-12T05:49:41;8.40;61.80
19258;DHT22;9763;48.780;9.212;2023-02-12T05:53:04;8.40;61.80
19258;DHT22;9763;48.780;9.212;2023-02-12T05:56:30;8.40;61.70
19258;DHT22;9763;48.780;9.212;2023-02-12T05:59:56;8.40;61.80
19258;DHT22;9763;48.780;9.212;2023-02-12T06:03:20;8.40;61.70
19258;DHT22;9763;48.780;9.212;2023-02-12T06:06:43;8.40;61.80
19258;DHT22;9763;48.780;9.212;2023-02-12T06:10:08;8.40;62.00
19258;DHT22;9763;48.780;9.212;2023-02-12T06:13:33;8.40;62.00
19258;DHT22;9763;48.780;9.212;2023-02-12T06:16:59;8.40;62.00
19258;DHT22;9763;48.780;9.212;2023-02-12T06:20:22;8.40;62.70
19258;DHT22;9763;48.780;9.212;2023-02-12T06:23:46;8.30;61.70
19258;DHT22;9763;48.780;9.212;2023-02-12T06:27:11;8.30;62.00
19258;DHT22;9763;48.780;9.212;2023-02-12T06:30:35;8.30;61.90
19258;DHT22;9763;48.780;9.212;2023-02-12T06:34:03;8.50;62.20
19258;DHT22;9763;48.780;9.212;2023-02-12T06:37:29;8.40;62.20
19258;DHT22;9763;48.780;9.212;2023-02-12T06:40:53;8.40;62.00
19258;DHT22;9763;48.780;9.212;2023-02-12T06:44:17;8.40;62.00
19258;DHT22;9763;48.780;9.212;2023-02-12T06:47:40;8.40;62.00
19258;DHT22;9763;48.780;9.212;2023-02-12T06:51:07;8.40;62.00
19258;DHT22;9763;48.780;9.212;2023-02-12T06:54:31;8.50;62.30
19258;DHT22;9763;48.780;9.212;2023-02-12T06:57:55;8.40;62.10
19258;DHT22;9763;48.780;9.212;2023-02-12T07:01:21;8.40;62.10
19258;DHT22;9763;48.780;9.212;2023-02-12T07:04:46;8.40;62.30
19258;DHT22;9763;48.780;9.212;2023-02-12T07:08:11;8.40;62.20
19258;DHT22;9763;48.780;9.212;2023-02-12T07:11:35;8.50;62.30
19258;DHT22;9763;48.780;9.212;2023-02-12T07:14:59;8.50;62.40
19258;DHT22;9763;48.780;9.212;2023-02-12T07:18:23;8.50;62.20
19258;DHT22;9763;48.780;9.212;2023-02-12T07:21:47;8.50;62.20
19258;DHT22;9763;48.780;9.212;2023-02-12T07:25:12;8.60;62.40
19258;DHT22;9763;48.780;9.212;2023-02-12T07:28:36;8.60;62.50
19258;DHT22;9763;48.780;9.212;2023-02-12T07:32:00;8.60;63.30
19258;DHT22;9763;48.780;9.212;2023-02-12T07:35:24;8.70;62.60
19258;DHT22;9763;48.780;9.212;2023-02-12T07:38:48;8.70;62.70
19258;DHT22;9763;48.780;9.212;2023-02-12T07:42:13;8.70;62.60
19258;DHT22;9763;48.780;9.212;2023-02-12T07:45:42;8.80;62.80
19258;DHT22;9763;48.780;9.212;2023-02-12T07:49:07;8.80;62.80
19258;DHT22;9763;48.780;9.212;2023-02-12T07:52:34;8.80;62.90
19258;DHT22;9763;48.780;9.212;2023-02-12T07:56:07;8.80;62.80
19258;DHT22;9763;48.780;9.212;2023-02-12T07:59:34;8.90;63.10
19258;DHT22;9763;48.780;9.212;2023-02-12T08:02:57;8.90;62.90
19258;DHT22;9763;48.780;9.212;2023-02-12T08:06:22;9.00;63.00
19258;DHT22;9763;48.780;9.212;2023-02-12T08:09:48;9.00;63.00
19258;DHT22;9763;48.780;9.212;2023-02-12T08:13:12;9.00;62.90
19258;DHT22;9763;48.780;9.212;2023-02-12T08:16:39;9.20;63.00
19258;DHT22;9763;48.780;9.212;2023-02-12T08:20:05;9.10;63.10
19258;DHT22;9763;48.780;9.212;2023-02-12T08:23:29;9.20;63.20
19258;DHT22;9763;48.780;9.212;2023-02-12T08:26:53;9.20;63.10
19258;DHT22;9763;48.780;9.212;2023-02-12T08:30:18;9.30;63.90
19258;DHT22;9763;48.780;9.212;2023-02-12T08:33:45;9.30;63.00
19258;DHT22;9763;48.780;9.212;2023-02-12T08:37:09;9.40;63.20
19258;DHT22;9763;48.780;9.212;2023-02-12T08:40:32;9.40;63.10
19258;DHT22;9763;48.780;9.212;2023-02-12T08:43:57;9.50;63.20
19258;DHT22;9763;48.780;9.212;2023-02-12T08:47:22;9.50;63.30
19258;DHT22;9763;48.780;9.212;2023-02-12T08:50:47;9.60;63.20
19258;DHT22;9763;48.780;9.212;2023-02-12T08:54:12;9.70;63.30
19258;DHT22;9763;48.780;9.212;2023-02-12T08:57:38;9.70;64.10
19258;DHT22;9763;48.780;9.212;2023-02-12T09:01:07;9.80;63.20
19258;DHT22;9763;48.780;9.212;2023-02-12T09:04:32;9.90;63.40
19258;DHT22;9763;48.780;9.212;2023-02-12T09:07:58;9.90;63.30
19258;DHT22;9763;48.780;9.212;2023-02-12T09:11:23;10.00;62.00
19258;DHT22;9763;48.780;9.212;2023-02-12T09:14:51;10.10;62.20
19258;DHT22;9763;48.780;9.212;2023-02-12T09:18:15;10.10;62.00
19258;DHT22;9763;48.780;9.212;2023-02-12T09:21:40;10.20;62.10
19258;DHT22;9763;48.780;9.212;2023-02-12T09:25:06;10.20;62.00
19258;DHT22;9763;48.780;9.212;2023-02-12T09:28:30;10.30;62.10
19258;DHT22;9763;48.780;9.212;2023-02-12T09:31:54;10.30;62.70
19258;DHT22;9763;48.780;9.212;2023-02-12T09:35:18;10.40;62.00
19258;DHT22;9763;48.780;9.212;2023-02-12T09:38:42;10.50;62.00
19258;DHT22;9763;48.780;9.212;2023-02-12T09:42:15;10.50;62.10
19258;DHT22;9763;48.780;9.212;2023-02-12T09:45:55;10.60;62.20
19258;DHT22;9763;48.780;9.212;2023-02-12T09:49:47;10.60;62.20
19258;DHT22;9763;48.780;9.212;2023-02-12T09:53:21;10.70;62.30
19258;DHT22;9763;48.780;9.212;2023-02-12T09:56:50;10.80;62.50
19258;DHT22;9763;48.780;9.212;2023-02-12T10:00:23;10.90;62.50
19258;DHT22;9763;48.780;9.212;2023-02-12T10:03:52;11.00;62.40
19258;DHT22;9763;48.780;9.212;2023-02-12T10:07:24;11.10;62.50
19258;DHT22;9763;48.780;9.212;2023-02-12T10:11:16;11.10;62.50
19258;DHT22;9763;48.780;9.212;2023-02-12T10:15:19;11.20;62.60
19258;DHT22;9763;48.780;9.212;2023-02-12T10:19:07;11.30;62.70
19258;DHT22;9763;48.780;9.212;2023-02-12T10:22:52;11.40;62.80
19258;DHT22;9763;48.780;9.212;2023-02-12T10:26:28;11.50;62.80
19258;DHT22;9763;48.780;9.212;2023-02-12T10:29:54;11.60;62.70
19258;DHT22;9763;48.780;9.212;2023-02-12T10:33:26;11.60;62.60
19258;DHT22;9763;48.780;9.212;2023-02-12T10:36:57;11.70;62.60
19258;DHT22;9763;48.780;9.212;2023-02-12T10:40:28;11.80;62.60
19258;DHT22;9763;48.780;9.212;2023-02-12T10:43:55;11.80;62.80
19258;DHT22;9763;48.780;9.212;2023-02-12T10:47:21;11.90;62.80
19258;DHT22;9763;48.780;9.212;2023-02-12T10:51:01;12.00;62.70
19258;DHT22;9763;48.780;9.212;2023-02-12T10:54:39;12.00;62.30
19258;DHT22;9763;48.780;9.212;2023-02-12T10:58:17;12.10;62.40
19258;DHT22;9763;48.780;9.212;2023-02-12T11:01:46;12.10;62.10
19258;DHT22;9763;48.780;9.212;2023-02-12T11:05:22;12.10;62.20
19258;DHT22;9763;48.780;9.212;2023-02-12T11:08:49;12.20;62.20
19258;DHT22;9763;48.780;9.212;2023-02-12T11:12:29;12.20;62.30
19258;DHT22;9763;48.780;9.212;2023-02-12T11:15:56;12.20;62.00
19258;DHT22;9763;48.780;9.212;2023-02-12T11:19:24;12.20;62.10
19258;DHT22;9763;48.780;9.212;2023-02-12T11:22:52;12.20;62.10
19258;DHT22;9763;48.780;9.212;2023-02-12T11:26:27;12.20;62.20
19258;DHT22;9763;48.780;9.212;2023-02-12T11:30:17;12.20;62.00
19258;DHT22;9763;48.780;9.212;2023-02-12T11:33:42;12.20;62.00
19258;DHT22;9763;48.780;9.212;2023-02-12T11:37:14;12.20;62.00
19258;DHT22;9763;48.780;9.212;2023-02-12T11:40:45;12.20;61.90
19258;DHT22;9763;48.780;9.212;2023-02-12T11:44:15;12.20;61.90
19258;DHT22;9763;48.780;9.212;2023-02-12T11:47:41;12.30;62.00
19258;DHT22;9763;48.780;9.212;2023-02-12T11:51:07;12.20;61.70
19258;DHT22;9763;48.780;9.212;2023-02-12T11:54:42;12.20;61.70
19258;DHT22;9763;48.780;9.212;2023-02-12T11:58:14;12.30;61.90
19258;DHT22;9763;48.780;9.212;2023-02-12T12:01:44;12.30;62.00
19258;DHT22;9763;48.780;9.212;2023-02-12T12:05:13;12.30;62.10
19258;DHT22;9763;48.780;9.212;2023-02-12T12:08:43;12.40;62.20
19258;DHT22;9763;48.780;9.212;2023-02-12T12:12:16;12.40;62.20
19258;DHT22;9763;48.780;9.212;2023-02-12T12:15:48;12.50;62.40
19258;DHT22;9763;48.780;9.212;2023-02-12T12:19:40;12.80;62.70
19258;DHT22;9763;48.780;9.212;2023-02-12T12:23:19;12.70;61.40
19258;DHT22;9763;48.780;9.212;2023-02-12T12:26:52;12.70;62.40
19258;DHT22;9763;48.780;9.212;2023-02-12T12:30:26;12.80;62.30
19258;DHT22;9763;48.780;9.212;2023-02-12T12:34:04;12.90;62.30
19258;DHT22;9763;48.780;9.212;2023-02-12T12:37:37;14.30;63.60
19258;DHT22;9763;48.780;9.212;2023-02-12T12:41:17;13.00;62.20
19258;DHT22;9763;48.780;9.212;2023-02-12T12:45:00;13.00;62.20
19258;DHT22;9763;48.780;9.212;2023-02-12T12:48:52;13.10;62.50
19258;DHT22;9763;48.780;9.212;2023-02-12T12:56:38;13.20;62.20
19258;DHT22;9763;48.780;9.212;2023-02-12T13:00:25;13.30;62.10
19258;DHT22;9763;48.780;9.212;2023-02-12T13:04:31;13.30;61.60
19258;DHT22;9763;48.780;9.212;2023-02-12T13:08:18;13.30;61.30
19258;DHT22;9763;48.780;9.212;2023-02-12T13:16:05;13.20;60.70
19258;DHT22;9763;48.780;9.212;2023-02-12T13:19:46;13.10;60.50
19258;DHT22;9763;48.780;9.212;2023-02-12T13:23:26;13.00;60.20
19258;DHT22;9763;48.780;9.212;2023-02-12T13:27:02;11.60;59.20
19258;DHT22;9763;48.780;9.212;2023-02-12T13:30:30;12.70;60.40
19258;DHT22;9763;48.780;9.212;2023-02-12T13:34:00;12.60;60.30
19258;DHT22;9763;48.780;9.212;2023-02-12T13:37:34;12.60;60.50
19258;DHT22;9763;48.780;9.212;2023-02-12T13:41:05;12.50;60.60
19258;DHT22;9763;48.780;9.212;2023-02-12T13:44:35;12.50;60.70
19258;DHT22;9763;48.780;9.212;2023-02-12T13:48:22;12.60;61.00
19258;DHT22;9763;48.780;9.212;2023-02-12T13:52:00;12.80;61.30
19258;DHT22;9763;48.780;9.212;2023-02-12T13:55:32;12.60;61.00
19258;DHT22;9763;48.780;9.212;2023-02-12T13:59:01;12.60;60.90
19258;DHT22;9763;48.780;9.212;2023-02-12T14:06:13;12.60;61.20
19258;DHT22;9763;48.780;9.212;2023-02-12T14:09:43;12.60;60.60
19258;DHT22;9763;48.780;9.212;2023-02-12T14:13:15;12.60;60.50
19258;DHT22;9763;48.780;9.212;2023-02-12T14:16:42;12.50;60.30
19258;DHT22;9763;48.780;9.212;2023-02-12T14:20:11;12.50;60.30
19258;DHT22;9763;48.780;9.212;2023-02-12T14:23:44;12.50;60.50
19258;DHT22;9763;48.780;9.212;2023-02-12T14:27:26;12.50;60.50
19258;DHT22;9763;48.780;9.212;2023-02-12T14:31:21;12.40;60.30
19258;DHT22;9763;48.780;9.212;2023-02-12T14:34:54;12.40;60.40
19258;DHT22;9763;48.780;9.212;2023-02-12T14:38:59;12.50;60.40
19258;DHT22;9763;48.780;9.212;2023-02-12T14:42:53;12.40;60.30
19258;DHT22;9763;48.780;9.212;2023-02-12T14:46:44;12.40;60.30
19258;DHT22;9763;48.780;9.212;2023-02-12T14:50:16;12.30;60.30
19258;DHT22;9763;48.780;9.212;2023-02-12T14:53:45;12.30;60.30
19258;DHT22;9763;48.780;9.212;2023-02-12T14:57:21;12.30;60.20
19258;DHT22;9763;48.780;9.212;2023-02-12T15:00:50;12.20;60.10
19258;DHT22;9763;48.780;9.212;2023-02-12T15:04:23;12.20;60.10
19258;DHT22;9763;48.780;9.212;2023-02-12T15:07:52;12.20;60.10
19258;DHT22;9763;48.780;9.212;2023-02-12T15:11:26;12.20;60.10
19258;DHT22;9763;48.780;9.212;2023-02-12T15:15:03;12.10;60.10
19258;DHT22;9763;48.780;9.212;2023-02-12T15:18:42;12.00;60.00
19258;DHT22;9763;48.780;9.212;2023-02-12T15:22:21;12.00;60.00
19258;DHT22;9763;48.780;9.212;2023-02-12T15:25:49;12.00;60.10
19258;DHT22;9763;48.780;9.212;2023-02-12T15:29:19;11.90;60.00
19258;DHT22;9763;48.780;9.212;2023-02-12T15:32:44;11.80;60.00
19258;DHT22;9763;48.780;9.212;2023-02-12T15:36:09;11.80;60.00
19258;DHT22;9763;48.780;9.212;2023-02-12T15:39:41;11.70;60.00
19258;DHT22;9763;48.780;9.212;2023-02-12T15:43:17;11.60;60.00
19258;DHT22;9763;48.780;9.212;2023-02-12T15:46:52;11.60;60.00
19258;DHT22;9763;48.780;9.212;2023-02-12T15:50:20;11.50;60.10
19258;DHT22;9763;48.780;9.212;2023-02-12T15:53:45;11.40;59.90
19258;DHT22;9763;48.780;9.212;2023-02-12T15:57:10;11.40;60.00
19258;DHT22;9763;48.780;9.212;2023-02-12T16:00:40;11.30;60.00
19258;DHT22;9763;48.780;9.212;2023-02-12T16:04:07;11.30;60.10
19258;DHT22;9763;48.780;9.212;2023-02-12T16:07:35;11.20;60.00
19258;DHT22;9763;48.780;9.212;2023-02-12T16:11:01;11.10;59.90
19258;DHT22;9763;48.780;9.212;2023-02-12T16:14:38;11.00;60.00
19258;DHT22;9763;48.780;9.212;2023-02-12T16:18:22;11.00;60.20
19258;DHT22;9763;48.780;9.212;2023-02-12T16:21:48;10.90;60.30
19258;DHT22;9763;48.780;9.212;2023-02-12T16:25:17;10.80;60.20
19258;DHT22;9763;48.780;9.212;2023-02-12T16:28:45;10.80;60.10
19258;DHT22;9763;48.780;9.212;2023-02-12T16:32:27;10.70;59.80
19258;DHT22;9763;48.780;9.212;2023-02-12T16:36:01;10.60;60.00
19258;DHT22;9763;48.780;9.212;2023-02-12T16:43:43;10.50;60.20
19258;DHT22;9763;48.780;9.212;2023-02-12T16:47:18;10.50;60.00
19258;DHT22;9763;48.780;9.212;2023-02-12T16:50:47;10.40;60.30
19258;DHT22;9763;48.780;9.212;2023-02-12T16:54:35;10.60;60.50
19258;DHT22;9763;48.780;9.212;2023-02-12T16:57:59;10.30;60.70
19258;DHT22;9763;48.780;9.212;2023-02-12T17:01:25;10.20;60.30
19258;DHT22;9763;48.780;9.212;2023-02-12T17:04:50;10.10;60.30
19258;DHT22;9763;48.780;9.212;2023-02-12T17:08:20;10.10;61.00
19258;DHT22;9763;48.780;9.212;2023-02-12T17:11:46;11.10;61.60
19258;DHT22;9763;48.780;9.212;2023-02-12T17:15:18;10.00;60.40
19258;DHT22;9763;48.780;9.212;2023-02-12T17:18:45;9.90;61.80
19258;DHT22;9763;48.780;9.212;2023-02-12T17:22:17;9.80;61.60
19258;DHT22;9763;48.780;9.212;2023-02-12T17:25:44;9.80;61.90
19258;DHT22;9763;48.780;9.212;2023-02-12T17:29:09;9.70;61.40
19258;DHT22;9763;48.780;9.212;2023-02-12T17:32:33;9.70;61.70
19258;DHT22;9763;48.780;9.212;2023-02-12T17:35:57;9.60;61.60
19258;DHT22;9763;48.780;9.212;2023-02-12T17:39:21;9.60;61.70
19258;DHT22;9763;48.780;9.212;2023-02-12T17:42:45;9.50;61.40
19258;DHT22;9763;48.780;9.212;2023-02-12T17:46:10;9.50;61.50
19258;DHT22;9763;48.780;9.212;2023-02-12T17:49:35;9.40;61.60
19258;DHT22;9763;48.780;9.212;2023-02-12T17:53:00;9.40;61.20
19258;DHT22;9763;48.780;9.212;2023-02-12T17:56:24;9.30;61.40
19258;DHT22;9763;48.780;9.212;2023-02-12T17:59:48;9.30;61.40
19258;DHT22;9763;48.780;9.212;2023-02-12T18:03:12;9.20;61.30
19258;DHT22;9763;48.780;9.212;2023-02-12T18:06:36;9.20;61.60
19258;DHT22;9763;48.780;9.212;2023-02-12T18:10:00;9.20;61.90
19258;DHT22;9763;48.780;9.212;2023-02-12T18:13:24;9.10;61.90
19258;DHT22;9763;48.780;9.212;2023-02-12T18:16:47;9.10;61.80
19258;DHT22;9763;48.780;9.212;2023-02-12T18:20:13;9.00;61.70
19258;DHT22;9763;48.780;9.212;2023-02-12T18:23:37;9.30;62.00
19258;DHT22;9763;48.780;9.212;2023-02-12T18:27:01;9.10;61.80
19258;DHT22;9763;48.780;9.212;2023-02-12T18:30:25;8.80;61.50
19258;DHT22;9763;48.780;9.212;2023-02-12T18:33:48;8.80;61.50
19258;DHT22;9763;48.780;9.212;2023-02-12T18:37:14;8.70;61.70
19258;DHT22;9763;48.780;9.212;2023-02-12T18:40:38;9.00;62.30
19258;DHT22;9763;48.780;9.212;2023-02-12T18:44:02;8.70;62.20
19258;DHT22;9763;48.780;9.212;2023-02-12T18:47:26;8.60;62.30
19258;DHT22;9763;48.780;9.212;2023-02-12T18:50:50;8.70;62.80
19258;DHT22;9763;48.780;9.212;2023-02-12T18:54:17;8.60;62.60
19258;DHT22;9763;48.780;9.212;2023-02-12T18:57:41;9.70;63.90
19258;DHT22;9763;48.780;9.212;2023-02-12T19:01:11;8.70;62.80
19258;DHT22;9763;48.780;9.212;2023-02-12T19:04:36;8.70;63.10
19258;DHT22;9763;48.780;9.212;2023-02-12T19:08:00;8.70;62.80
19258;DHT22;9763;48.780;9.212;2023-02-12T19:11:25;8.80;62.80
19258;DHT22;9763;48.780;9.212;2023-02-12T19:14:50;8.80;63.00
19258;DHT22;9763;48.780;9.212;2023-02-12T19:18:13;8.80;62.60
19258;DHT22;9763;48.780;9.212;2023-02-12T19:21:37;8.80;62.60
19258;DHT22;9763;48.780;9.212;2023-02-12T19:25:01;8.80;62.70
19258;DHT22;9763;48.780;9.212;2023-02-12T19:28:26;8.80;62.60
19258;DHT22;9763;48.780;9.212;2023-02-12T19:31:50;8.80;62.70
19258;DHT22;9763;48.780;9.212;2023-02-12T19:35:14;8.70;62.40
19258;DHT22;9763;48.780;9.212;2023-02-12T19:38:38;8.40;62.00
19258;DHT22;9763;48.780;9.212;2023-02-12T19:42:02;8.70;62.30
19258;DHT22;9763;48.780;9.212;2023-02-12T19:45:27;8.70;62.20
19258;DHT22;9763;48.780;9.212;2023-02-12T19:48:54;8.70;62.10
19258;DHT22;9763;48.780;9.212;2023-02-12T19:52:19;8.70;62.10
19258;DHT22;9763;48.780;9.212;2023-02-12T19:55:42;8.60;62.00
19258;DHT22;9763;48.780;9.212;2023-02-12T19:59:06;8.60;62.00
19258;DHT22;9763;48.780;9.212;2023-02-12T20:02:32;8.90;62.40
19258;DHT22;9763;48.780;9.212;2023-02-12T20:05:59;8.50;61.90
19258;DHT22;9763;48.780;9.212;2023-02-12T20:09:24;8.60;62.10
19258;DHT22;9763;48.780;9.212;2023-02-12T20:12:48;8.40;61.90
19258;DHT22;9763;48.780;9.212;2023-02-12T20:16:14;8.30;61.60
19258;DHT22;9763;48.780;9.212;2023-02-12T20:19:41;8.30;61.70
19258;DHT22;9763;48.780;9.212;2023-02-12T20:23:05;8.20;61.50
19258;DHT22;9763;48.780;9.212;2023-02-12T20:26:29;8.10;61.50
19258;DHT22;9763;48.780;9.212;2023-02-12T20:29:54;8.10;61.70
19258;DHT22;9763;48.780;9.212;2023-02-12T20:33:17;8.00;61.50
19258;DHT22;9763;48.780;9.212;2023-02-12T20:36:44;8.00;61.70
19258;DHT22;9763;48.780;9.212;2023-02-12T20:40:09;7.90;61.80
19258;DHT22;9763;48.780;9.212;2023-02-12T20:43:33;7.90;61.70
19258;DHT22;9763;48.780;9.212;2023-02-12T20:46:58;7.80;61.70
19258;DHT22;9763;48.780;9.212;2023-02-12T20:50:21;7.80;61.50
19258;DHT22;9763;48.780;9.212;2023-02-12T20:53:47;8.60;62.50
19258;DHT22;9763;48.780;9.212;2023-02-12T20:57:11;7.70;61.90
19258;DHT22;9763;48.780;9.212;2023-02-12T21:00:35;7.60;61.70
19258;DHT22;9763;48.780;9.212;2023-02-12T21:04:02;7.50;61.70
19258;DHT22;9763;48.780;9.212;2023-02-12T21:07:27;7.50;62.50
19258;DHT22;9763;48.780;9.212;2023-02-12T21:10:58;7.50;61.70
19258;DHT22;9763;48.780;9.212;2023-02-12T21:14:22;7.40;61.90
19258;DHT22;9763;48.780;9.212;2023-02-12T21:17:46;7.30;61.70
19258;DHT22;9763;48.780;9.212;2023-02-12T21:21:12;7.20;61.50
19258;DHT22;9763;48.780;9.212;2023-02-12T21:24:36;7.20;61.90
19258;DHT22;9763;48.780;9.212;2023-02-12T21:28:01;7.10;61.80
19258;DHT22;9763;48.780;9.212;2023-02-12T21:31:27;7.00;61.80
19258;DHT22;9763;48.780;9.212;2023-02-12T21:34:52;7.40;62.40
19258;DHT22;9763;48.780;9.212;2023-02-12T21:38:16;7.30;62.20
19258;DHT22;9763;48.780;9.212;2023-02-12T21:41:41;7.00;61.80
19258;DHT22;9763;48.780;9.212;2023-02-12T21:45:07;6.90;61.90
19258;DHT22;9763;48.780;9.212;2023-02-12T21:48:31;6.90;62.10
19258;DHT22;9763;48.780;9.212;2023-02-12T21:51:57;6.90;62.10
19258;DHT22;9763;48.780;9.212;2023-02-12T21:55:23;6.80;62.00
19258;DHT22;9763;48.780;9.212;2023-02-12T21:58:48;7.10;62.20
19258;DHT22;9763;48.780;9.212;2023-02-12T22:02:14;6.80;62.00
19258;DHT22;9763;48.780;9.212;2023-02-12T22:05:38;6.70;61.80
19258;DHT22;9763;48.780;9.212;2023-02-12T22:09:03;7.20;62.30
19258;DHT22;9763;48.780;9.212;2023-02-12T22:12:28;6.70;62.00
19258;DHT22;9763;48.780;9.212;2023-02-12T22:15:53;6.70;61.90
19258;DHT22;9763;48.780;9.212;2023-02-12T22:19:18;6.60;61.90
19258;DHT22;9763;48.780;9.212;2023-02-12T22:22:43;6.60;62.00
19258;DHT22;9763;48.780;9.212;2023-02-12T22:26:09;6.50;61.90
19258;DHT22;9763;48.780;9.212;2023-02-12T22:29:34;6.50;62.20
19258;DHT22;9763;48.780;9.212;2023-02-12T22:32:58;6.40;62.20
19258;DHT22;9763;48.780;9.212;2023-02-12T22:36:24;6.40;62.20
19258;DHT22;9763;48.780;9.212;2023-02-12T22:39:48;6.30;62.40
19258;DHT22;9763;48.780;9.212;2023-02-12T22:43:13;6.30;62.30
19258;DHT22;9763;48.780;9.212;2023-02-12T22:46:36;6.20;62.20
19258;DHT22;9763;48.780;9.212;2023-02-12T22:50:00;6.20;62.40
19258;DHT22;9763;48.780;9.212;2023-02-12T22:53:25;6.50;62.80
19258;DHT22;9763;48.780;9.212;2023-02-12T22:56:50;6.10;62.60